sensor_id;sensor_type;location;lat;lon;timestamp;P1;durP1;ratioP1;P2;durP2;ratioP2
23406;SDS011;11876;53.438;18.942;2022-12-17T00:01:42;81.90;;;35.93;;
23406;SDS011;11876;53.438;18.942;2022-12-17T00:05:02;85.03;;;36.50;;
23406;SDS011;11876;53.438;18.942;2022-12-17T00:08:23;87.20;;;37.77;;
23406;SDS011;11876;53.438;18.942;2022-12-17T00:11:45;86.27;;;37.70;;
23406;SDS011;11876;53.438;18.942;2022-12-17T00:15:06;81.13;;;35.73;;
23406;SDS011;11876;53.438;18.942;2022-12-17T00:18:27;84.53;;;36.53;;
23406;SDS011;11876;53.438;18.942;2022-12-17T00:21:49;86.90;;;36.27;;
23406;SDS011;11876;53.438;18.942;2022-12-17T00:25:10;90.57;;;39.60;;
23406;SDS011;11876;53.438;18.942;2022-12-17T00:28:31;86.10;;;36.30;;
23406;SDS011;11876;53.438;18.942;2022-12-17T00:31:52;79.27;;;36.07;;
23406;SDS011;11876;53.438;18.942;2022-12-17T00:35:13;92.97;;;36.20;;
23406;SDS011;11876;53.438;18.942;2022-12-17T00:38:34;82.03;;;35.37;;
23406;SDS011;11876;53.438;18.942;2022-12-17T00:41:57;91.10;;;40.37;;
23406;SDS011;11876;53.438;18.942;2022-12-17T00:45:18;92.77;;;38.63;;
23406;SDS011;11876;53.438;18.942;2022-12-17T00:48:38;81.27;;;34.97;;
23406;SDS011;11876;53.438;18.942;2022-12-17T00:52:00;82.07;;;35.07;;
23406;SDS011;11876;53.438;18.942;2022-12-17T00:55:21;81.40;;;36.93;;
23406;SDS011;11876;53.438;18.942;2022-12-17T00:58:43;84.83;;;37.10;;
23406;SDS011;11876;53.438;18.942;2022-12-17T01:02:04;82.03;;;35.70;;
23406;SDS011;11876;53.438;18.942;2022-12-17T01:05:25;86.93;;;36.17;;
23406;SDS011;11876;53.438;18.942;2022-12-17T01:08:46;88.60;;;37.13;;
23406;SDS011;11876;53.438;18.942;2022-12-17T01:12:08;81.90;;;35.33;;
23406;SDS011;11876;53.438;18.942;2022-12-17T01:15:29;82.20;;;35.27;;
23406;SDS011;11876;53.438;18.942;2022-12-17T01:18:51;80.83;;;35.97;;
23406;SDS011;11876;53.438;18.942;2022-12-17T01:22:12;78.37;;;33.63;;
23406;SDS011;11876;53.438;18.942;2022-12-17T01:25:33;74.93;;;33.97;;
23406;SDS011;11876;53.438;18.942;2022-12-17T01:28:56;59.10;;;27.83;;
23406;SDS011;11876;53.438;18.942;2022-12-17T01:32:17;71.70;;;31.27;;
23406;SDS011;11876;53.438;18.942;2022-12-17T01:35:38;74.17;;;34.00;;
23406;SDS011;11876;53.438;18.942;2022-12-17T01:39:00;80.97;;;32.73;;
23406;SDS011;11876;53.438;18.942;2022-12-17T01:42:21;72.50;;;31.80;;
23406;SDS011;11876;53.438;18.942;2022-12-17T01:45:46;84.37;;;35.77;;
23406;SDS011;11876;53.438;18.942;2022-12-17T01:49:09;91.67;;;33.93;;
23406;SDS011;11876;53.438;18.942;2022-12-17T01:52:31;71.68;;;32.65;;
23406;SDS011;11876;53.438;18.942;2022-12-17T01:55:52;76.57;;;31.27;;
23406;SDS011;11876;53.438;18.942;2022-12-17T01:59:14;72.87;;;32.63;;
23406;SDS011;11876;53.438;18.942;2022-12-17T02:02:39;72.85;;;31.13;;
23406;SDS011;11876;53.438;18.942;2022-12-17T02:06:18;78.77;;;33.30;;
23406;SDS011;11876;53.438;18.942;2022-12-17T02:09:45;82.23;;;34.57;;
23406;SDS011;11876;53.438;18.942;2022-12-17T02:13:14;80.17;;;32.23;;
23406;SDS011;11876;53.438;18.942;2022-12-17T02:16:43;58.13;;;26.57;;
23406;SDS011;11876;53.438;18.942;2022-12-17T02:20:27;60.00;;;26.50;;
23406;SDS011;11876;53.438;18.942;2022-12-17T02:27:12;71.10;;;30.10;;
23406;SDS011;11876;53.438;18.942;2022-12-17T02:30:33;64.43;;;27.97;;
23406;SDS011;11876;53.438;18.942;2022-12-17T02:33:56;69.57;;;26.73;;
23406;SDS011;11876;53.438;18.942;2022-12-17T02:37:20;60.58;;;27.30;;
23406;SDS011;11876;53.438;18.942;2022-12-17T02:40:41;72.87;;;30.00;;
23406;SDS011;11876;53.438;18.942;2022-12-17T02:44:04;59.13;;;27.15;;
23406;SDS011;11876;53.438;18.942;2022-12-17T02:47:28;65.03;;;28.80;;
23406;SDS011;11876;53.438;18.942;2022-12-17T02:50:50;75.67;;;29.27;;
23406;SDS011;11876;53.438;18.942;2022-12-17T02:54:12;70.13;;;29.70;;
23406;SDS011;11876;53.438;18.942;2022-12-17T02:57:33;70.50;;;29.40;;
23406;SDS011;11876;53.438;18.942;2022-12-17T03:00:55;73.63;;;28.83;;
23406;SDS011;11876;53.438;18.942;2022-12-17T03:04:17;70.73;;;28.30;;
23406;SDS011;11876;53.438;18.942;2022-12-17T03:07:39;55.97;;;26.23;;
23406;SDS011;11876;53.438;18.942;2022-12-17T03:11:00;50.93;;;22.77;;
23406;SDS011;11876;53.438;18.942;2022-12-17T03:14:21;56.40;;;22.17;;
23406;SDS011;11876;53.438;18.942;2022-12-17T03:17:42;45.33;;;20.53;;
23406;SDS011;11876;53.438;18.942;2022-12-17T03:21:03;51.17;;;21.20;;
23406;SDS011;11876;53.438;18.942;2022-12-17T03:24:25;57.07;;;23.17;;
23406;SDS011;11876;53.438;18.942;2022-12-17T03:27:46;53.70;;;22.73;;
23406;SDS011;11876;53.438;18.942;2022-12-17T03:31:07;62.50;;;24.40;;
23406;SDS011;11876;53.438;18.942;2022-12-17T03:34:28;55.63;;;22.07;;
23406;SDS011;11876;53.438;18.942;2022-12-17T03:37:49;54.97;;;21.97;;
23406;SDS011;11876;53.438;18.942;2022-12-17T03:41:10;49.53;;;21.57;;
23406;SDS011;11876;53.438;18.942;2022-12-17T03:44:31;48.93;;;23.63;;
23406;SDS011;11876;53.438;18.942;2022-12-17T03:48:01;49.80;;;21.90;;
23406;SDS011;11876;53.438;18.942;2022-12-17T03:51:24;41.93;;;18.90;;
23406;SDS011;11876;53.438;18.942;2022-12-17T03:54:45;52.60;;;21.77;;
23406;SDS011;11876;53.438;18.942;2022-12-17T03:58:05;49.57;;;21.50;;
23406;SDS011;11876;53.438;18.942;2022-12-17T04:01:26;56.10;;;21.60;;
23406;SDS011;11876;53.438;18.942;2022-12-17T04:04:48;44.73;;;20.83;;
23406;SDS011;11876;53.438;18.942;2022-12-17T04:08:20;39.47;;;18.83;;
23406;SDS011;11876;53.438;18.942;2022-12-17T04:11:41;41.80;;;18.77;;
23406;SDS011;11876;53.438;18.942;2022-12-17T04:15:02;39.77;;;18.80;;
23406;SDS011;11876;53.438;18.942;2022-12-17T04:18:24;43.30;;;17.47;;
23406;SDS011;11876;53.438;18.942;2022-12-17T04:21:44;44.83;;;19.43;;
23406;SDS011;11876;53.438;18.942;2022-12-17T04:25:06;45.03;;;19.67;;
23406;SDS011;11876;53.438;18.942;2022-12-17T04:28:27;41.90;;;19.37;;
23406;SDS011;11876;53.438;18.942;2022-12-17T04:31:48;45.07;;;18.47;;
23406;SDS011;11876;53.438;18.942;2022-12-17T04:35:09;38.70;;;16.87;;
23406;SDS011;11876;53.438;18.942;2022-12-17T04:38:30;45.20;;;18.77;;
23406;SDS011;11876;53.438;18.942;2022-12-17T04:41:59;37.83;;;17.67;;
23406;SDS011;11876;53.438;18.942;2022-12-17T04:45:20;39.67;;;17.53;;
23406;SDS011;11876;53.438;18.942;2022-12-17T04:48:41;40.07;;;17.80;;
23406;SDS011;11876;53.438;18.942;2022-12-17T04:52:02;44.17;;;18.37;;
23406;SDS011;11876;53.438;18.942;2022-12-17T04:55:24;36.60;;;17.63;;
23406;SDS011;11876;53.438;18.942;2022-12-17T04:58:45;41.37;;;18.97;;
23406;SDS011;11876;53.438;18.942;2022-12-17T05:02:06;48.37;;;20.23;;
23406;SDS011;11876;53.438;18.942;2022-12-17T05:05:27;48.20;;;20.60;;
23406;SDS011;11876;53.438;18.942;2022-12-17T05:08:48;51.50;;;22.60;;
23406;SDS011;11876;53.438;18.942;2022-12-17T05:12:09;46.45;;;21.27;;
23406;SDS011;11876;53.438;18.942;2022-12-17T05:15:30;43.22;;;21.00;;
23406;SDS011;11876;53.438;18.942;2022-12-17T05:18:53;43.58;;;17.77;;
23406;SDS011;11876;53.438;18.942;2022-12-17T05:22:15;42.63;;;19.37;;
23406;SDS011;11876;53.438;18.942;2022-12-17T05:25:35;39.23;;;19.80;;
23406;SDS011;11876;53.438;18.942;2022-12-17T05:28:56;41.90;;;17.37;;
23406;SDS011;11876;53.438;18.942;2022-12-17T05:32:18;41.97;;;19.50;;
23406;SDS011;11876;53.438;18.942;2022-12-17T05:35:39;45.33;;;18.87;;
23406;SDS011;11876;53.438;18.942;2022-12-17T05:39:00;46.58;;;20.33;;
23406;SDS011;11876;53.438;18.942;2022-12-17T05:42:21;45.20;;;19.60;;
23406;SDS011;11876;53.438;18.942;2022-12-17T05:45:42;37.47;;;18.90;;
23406;SDS011;11876;53.438;18.942;2022-12-17T05:49:04;32.43;;;16.67;;
23406;SDS011;11876;53.438;18.942;2022-12-17T05:52:26;57.30;;;21.77;;
23406;SDS011;11876;53.438;18.942;2022-12-17T05:55:47;48.30;;;19.97;;
23406;SDS011;11876;53.438;18.942;2022-12-17T05:59:10;35.37;;;15.37;;
23406;SDS011;11876;53.438;18.942;2022-12-17T06:02:31;45.83;;;20.17;;
23406;SDS011;11876;53.438;18.942;2022-12-17T06:05:55;46.60;;;20.73;;
23406;SDS011;11876;53.438;18.942;2022-12-17T06:09:16;49.73;;;19.63;;
23406;SDS011;11876;53.438;18.942;2022-12-17T06:12:38;42.37;;;19.57;;
23406;SDS011;11876;53.438;18.942;2022-12-17T06:15:59;42.00;;;18.50;;
23406;SDS011;11876;53.438;18.942;2022-12-17T06:19:20;41.93;;;17.67;;
23406;SDS011;11876;53.438;18.942;2022-12-17T06:22:41;38.67;;;17.47;;
23406;SDS011;11876;53.438;18.942;2022-12-17T06:26:02;43.20;;;18.57;;
23406;SDS011;11876;53.438;18.942;2022-12-17T06:29:23;48.53;;;19.60;;
23406;SDS011;11876;53.438;18.942;2022-12-17T06:32:44;45.60;;;21.17;;
23406;SDS011;11876;53.438;18.942;2022-12-17T06:36:05;49.27;;;21.90;;
23406;SDS011;11876;53.438;18.942;2022-12-17T06:39:27;46.03;;;18.57;;
23406;SDS011;11876;53.438;18.942;2022-12-17T06:42:54;50.87;;;20.83;;
23406;SDS011;11876;53.438;18.942;2022-12-17T06:46:16;49.17;;;19.70;;
23406;SDS011;11876;53.438;18.942;2022-12-17T06:49:37;51.50;;;19.10;;
23406;SDS011;11876;53.438;18.942;2022-12-17T06:53:03;46.43;;;20.23;;
23406;SDS011;11876;53.438;18.942;2022-12-17T06:56:25;39.63;;;17.83;;
23406;SDS011;11876;53.438;18.942;2022-12-17T06:59:46;38.80;;;18.50;;
23406;SDS011;11876;53.438;18.942;2022-12-17T07:03:09;42.87;;;19.53;;
23406;SDS011;11876;53.438;18.942;2022-12-17T07:06:31;46.88;;;20.05;;
23406;SDS011;11876;53.438;18.942;2022-12-17T07:09:52;45.97;;;22.10;;
23406;SDS011;11876;53.438;18.942;2022-12-17T07:13:14;58.37;;;22.27;;
23406;SDS011;11876;53.438;18.942;2022-12-17T07:16:36;47.43;;;20.53;;
23406;SDS011;11876;53.438;18.942;2022-12-17T07:19:57;51.63;;;22.37;;
23406;SDS011;11876;53.438;18.942;2022-12-17T07:23:18;41.70;;;21.23;;
23406;SDS011;11876;53.438;18.942;2022-12-17T07:26:40;47.80;;;20.80;;
23406;SDS011;11876;53.438;18.942;2022-12-17T07:30:01;48.90;;;20.80;;
23406;SDS011;11876;53.438;18.942;2022-12-17T07:33:22;53.83;;;24.67;;
23406;SDS011;11876;53.438;18.942;2022-12-17T07:36:43;53.97;;;23.13;;
23406;SDS011;11876;53.438;18.942;2022-12-17T07:40:04;44.53;;;18.63;;
23406;SDS011;11876;53.438;18.942;2022-12-17T07:43:27;42.43;;;18.77;;
23406;SDS011;11876;53.438;18.942;2022-12-17T07:46:53;42.13;;;19.40;;
23406;SDS011;11876;53.438;18.942;2022-12-17T07:50:14;50.43;;;21.93;;
23406;SDS011;11876;53.438;18.942;2022-12-17T07:53:36;46.60;;;21.50;;
23406;SDS011;11876;53.438;18.942;2022-12-17T07:56:57;23.37;;;12.23;;
23406;SDS011;11876;53.438;18.942;2022-12-17T08:00:17;23.23;;;12.30;;
23406;SDS011;11876;53.438;18.942;2022-12-17T08:03:39;26.03;;;12.73;;
23406;SDS011;11876;53.438;18.942;2022-12-17T08:07:00;25.90;;;12.40;;
23406;SDS011;11876;53.438;18.942;2022-12-17T08:10:21;32.23;;;14.03;;
23406;SDS011;11876;53.438;18.942;2022-12-17T08:13:42;33.93;;;16.23;;
23406;SDS011;11876;53.438;18.942;2022-12-17T08:17:03;26.63;;;13.47;;
23406;SDS011;11876;53.438;18.942;2022-12-17T08:20:24;34.77;;;13.80;;
23406;SDS011;11876;53.438;18.942;2022-12-17T08:23:46;35.80;;;16.73;;
23406;SDS011;11876;53.438;18.942;2022-12-17T08:27:07;50.00;;;17.23;;
23406;SDS011;11876;53.438;18.942;2022-12-17T08:30:28;47.80;;;13.27;;
23406;SDS011;11876;53.438;18.942;2022-12-17T08:33:49;72.67;;;17.30;;
23406;SDS011;11876;53.438;18.942;2022-12-17T08:37:10;41.17;;;15.97;;
23406;SDS011;11876;53.438;18.942;2022-12-17T08:40:31;57.07;;;19.30;;
23406;SDS011;11876;53.438;18.942;2022-12-17T08:43:52;69.50;;;17.23;;
23406;SDS011;11876;53.438;18.942;2022-12-17T08:47:13;67.57;;;16.43;;
23406;SDS011;11876;53.438;18.942;2022-12-17T08:50:34;50.00;;;17.03;;
23406;SDS011;11876;53.438;18.942;2022-12-17T08:53:56;50.07;;;19.87;;
23406;SDS011;11876;53.438;18.942;2022-12-17T08:57:17;54.10;;;19.33;;
23406;SDS011;11876;53.438;18.942;2022-12-17T09:00:38;42.60;;;16.50;;
23406;SDS011;11876;53.438;18.942;2022-12-17T09:03:59;65.43;;;16.67;;
23406;SDS011;11876;53.438;18.942;2022-12-17T09:07:20;44.90;;;15.57;;
23406;SDS011;11876;53.438;18.942;2022-12-17T09:10:41;41.65;;;16.88;;
23406;SDS011;11876;53.438;18.942;2022-12-17T09:14:02;43.50;;;17.60;;
23406;SDS011;11876;53.438;18.942;2022-12-17T09:17:23;50.00;;;17.10;;
23406;SDS011;11876;53.438;18.942;2022-12-17T09:20:50;46.45;;;18.33;;
23406;SDS011;11876;53.438;18.942;2022-12-17T09:24:12;41.33;;;16.70;;
23406;SDS011;11876;53.438;18.942;2022-12-17T09:27:33;35.47;;;16.02;;
23406;SDS011;11876;53.438;18.942;2022-12-17T09:30:58;36.88;;;16.45;;
23406;SDS011;11876;53.438;18.942;2022-12-17T09:34:19;32.30;;;14.85;;
23406;SDS011;11876;53.438;18.942;2022-12-17T09:37:40;46.15;;;16.85;;
23406;SDS011;11876;53.438;18.942;2022-12-17T09:41:06;44.83;;;17.92;;
23406;SDS011;11876;53.438;18.942;2022-12-17T09:48:06;39.67;;;16.42;;
23406;SDS011;11876;53.438;18.942;2022-12-17T09:51:39;33.83;;;15.95;;
23406;SDS011;11876;53.438;18.942;2022-12-17T09:55:01;40.97;;;17.33;;
23406;SDS011;11876;53.438;18.942;2022-12-17T09:58:25;35.45;;;16.40;;
23406;SDS011;11876;53.438;18.942;2022-12-17T10:01:55;39.90;;;17.48;;
23406;SDS011;11876;53.438;18.942;2022-12-17T10:05:20;41.05;;;18.00;;
23406;SDS011;11876;53.438;18.942;2022-12-17T10:08:54;39.97;;;18.63;;
23406;SDS011;11876;53.438;18.942;2022-12-17T10:12:18;35.38;;;17.63;;
23406;SDS011;11876;53.438;18.942;2022-12-17T10:15:40;33.30;;;17.20;;
23406;SDS011;11876;53.438;18.942;2022-12-17T10:19:02;40.58;;;17.83;;
23406;SDS011;11876;53.438;18.942;2022-12-17T10:22:23;37.42;;;17.25;;
23406;SDS011;11876;53.438;18.942;2022-12-17T10:25:51;36.75;;;18.67;;
23406;SDS011;11876;53.438;18.942;2022-12-17T10:32:54;47.83;;;21.63;;
23406;SDS011;11876;53.438;18.942;2022-12-17T10:36:18;55.10;;;23.13;;
23406;SDS011;11876;53.438;18.942;2022-12-17T10:39:40;55.03;;;22.75;;
23406;SDS011;11876;53.438;18.942;2022-12-17T10:43:01;47.90;;;21.98;;
23406;SDS011;11876;53.438;18.942;2022-12-17T10:49:55;58.45;;;26.58;;
23406;SDS011;11876;53.438;18.942;2022-12-17T10:53:18;54.08;;;23.98;;
23406;SDS011;11876;53.438;18.942;2022-12-17T10:56:40;51.63;;;24.70;;
23406;SDS011;11876;53.438;18.942;2022-12-17T11:00:02;62.92;;;25.60;;
23406;SDS011;11876;53.438;18.942;2022-12-17T11:03:52;59.00;;;24.88;;
23406;SDS011;11876;53.438;18.942;2022-12-17T11:07:28;61.83;;;27.65;;
23406;SDS011;11876;53.438;18.942;2022-12-17T11:10:51;57.95;;;26.63;;
23406;SDS011;11876;53.438;18.942;2022-12-17T11:14:13;62.13;;;26.58;;
23406;SDS011;11876;53.438;18.942;2022-12-17T11:17:34;58.13;;;25.92;;
23406;SDS011;11876;53.438;18.942;2022-12-17T11:20:57;59.60;;;25.77;;
23406;SDS011;11876;53.438;18.942;2022-12-17T11:24:23;55.78;;;25.88;;
23406;SDS011;11876;53.438;18.942;2022-12-17T11:27:49;59.75;;;26.17;;
23406;SDS011;11876;53.438;18.942;2022-12-17T11:42:05;56.15;;;27.45;;
23406;SDS011;11876;53.438;18.942;2022-12-17T11:45:36;90.13;;;41.20;;
23406;SDS011;11876;53.438;18.942;2022-12-17T11:52:50;125.72;;;43.63;;
23406;SDS011;11876;53.438;18.942;2022-12-17T11:56:28;235.52;;;80.97;;
23406;SDS011;11876;53.438;18.942;2022-12-17T11:59:55;66.72;;;28.58;;
23406;SDS011;11876;53.438;18.942;2022-12-17T12:10:48;42.03;;;21.95;;
23406;SDS011;11876;53.438;18.942;2022-12-17T12:18:17;80.90;;;33.80;;
23406;SDS011;11876;53.438;18.942;2022-12-17T12:22:18;42.95;;;18.33;;
23406;SDS011;11876;53.438;18.942;2022-12-17T12:33:27;35.63;;;18.20;;
23406;SDS011;11876;53.438;18.942;2022-12-17T12:37:04;34.83;;;18.90;;
23406;SDS011;11876;53.438;18.942;2022-12-17T12:40:28;32.40;;;18.85;;
23406;SDS011;11876;53.438;18.942;2022-12-17T12:43:55;34.85;;;18.67;;
23406;SDS011;11876;53.438;18.942;2022-12-17T12:47:22;33.92;;;18.95;;
23406;SDS011;11876;53.438;18.942;2022-12-17T12:50:57;36.15;;;19.88;;
23406;SDS011;11876;53.438;18.942;2022-12-17T12:54:26;36.03;;;20.05;;
23406;SDS011;11876;53.438;18.942;2022-12-17T13:01:30;45.15;;;24.35;;
23406;SDS011;11876;53.438;18.942;2022-12-17T13:04:53;34.08;;;19.38;;
23406;SDS011;11876;53.438;18.942;2022-12-17T13:08:18;46.70;;;25.13;;
23406;SDS011;11876;53.438;18.942;2022-12-17T13:11:29;38.88;;;21.65;;
23406;SDS011;11876;53.438;18.942;2022-12-17T13:21:25;42.55;;;22.85;;
23406;SDS011;11876;53.438;18.942;2022-12-17T13:24:30;44.45;;;24.15;;
23406;SDS011;11876;53.438;18.942;2022-12-17T13:27:37;39.42;;;22.00;;
23406;SDS011;11876;53.438;18.942;2022-12-17T13:30:40;39.72;;;22.88;;
23406;SDS011;11876;53.438;18.942;2022-12-17T13:33:45;40.50;;;22.95;;
23406;SDS011;11876;53.438;18.942;2022-12-17T13:46:58;41.65;;;22.70;;
23406;SDS011;11876;53.438;18.942;2022-12-17T13:50:03;47.10;;;24.75;;
23406;SDS011;11876;53.438;18.942;2022-12-17T13:53:36;46.17;;;26.30;;
23406;SDS011;11876;53.438;18.942;2022-12-17T13:56:41;45.65;;;25.88;;
23406;SDS011;11876;53.438;18.942;2022-12-17T14:02:52;43.75;;;24.48;;
23406;SDS011;11876;53.438;18.942;2022-12-17T14:05:56;40.47;;;22.63;;
23406;SDS011;11876;53.438;18.942;2022-12-17T14:08:59;46.95;;;26.40;;
23406;SDS011;11876;53.438;18.942;2022-12-17T14:12:03;44.97;;;24.10;;
23406;SDS011;11876;53.438;18.942;2022-12-17T14:15:25;50.13;;;25.80;;
23406;SDS011;11876;53.438;18.942;2022-12-17T14:18:30;45.30;;;23.33;;
23406;SDS011;11876;53.438;18.942;2022-12-17T14:21:32;47.97;;;24.83;;
23406;SDS011;11876;53.438;18.942;2022-12-17T14:24:35;47.28;;;24.77;;
23406;SDS011;11876;53.438;18.942;2022-12-17T14:27:37;47.75;;;23.45;;
23406;SDS011;11876;53.438;18.942;2022-12-17T14:30:40;49.58;;;26.30;;
23406;SDS011;11876;53.438;18.942;2022-12-17T14:34:07;39.85;;;19.95;;
23406;SDS011;11876;53.438;18.942;2022-12-17T14:37:17;48.20;;;23.67;;
23406;SDS011;11876;53.438;18.942;2022-12-17T14:40:22;49.15;;;23.70;;
23406;SDS011;11876;53.438;18.942;2022-12-17T14:43:26;42.75;;;24.42;;
23406;SDS011;11876;53.438;18.942;2022-12-17T14:46:30;43.47;;;22.70;;
23406;SDS011;11876;53.438;18.942;2022-12-17T14:49:36;50.55;;;25.85;;
23406;SDS011;11876;53.438;18.942;2022-12-17T14:52:57;49.33;;;26.55;;
23406;SDS011;11876;53.438;18.942;2022-12-17T14:56:01;61.85;;;31.38;;
23406;SDS011;11876;53.438;18.942;2022-12-17T14:59:28;53.92;;;28.65;;
23406;SDS011;11876;53.438;18.942;2022-12-17T15:02:38;58.17;;;28.95;;
23406;SDS011;11876;53.438;18.942;2022-12-17T15:05:40;57.25;;;29.23;;
23406;SDS011;11876;53.438;18.942;2022-12-17T15:08:44;54.95;;;29.15;;
23406;SDS011;11876;53.438;18.942;2022-12-17T15:11:48;50.38;;;27.27;;
23406;SDS011;11876;53.438;18.942;2022-12-17T15:14:50;59.95;;;31.77;;
23406;SDS011;11876;53.438;18.942;2022-12-17T15:17:53;37.47;;;21.92;;
23406;SDS011;11876;53.438;18.942;2022-12-17T15:20:55;50.95;;;25.33;;
23406;SDS011;11876;53.438;18.942;2022-12-17T15:23:58;57.70;;;29.55;;
23406;SDS011;11876;53.438;18.942;2022-12-17T15:27:00;60.55;;;32.15;;
23406;SDS011;11876;53.438;18.942;2022-12-17T15:30:03;56.03;;;27.30;;
23406;SDS011;11876;53.438;18.942;2022-12-17T15:33:06;34.83;;;18.90;;
23406;SDS011;11876;53.438;18.942;2022-12-17T15:36:10;49.00;;;25.77;;
23406;SDS011;11876;53.438;18.942;2022-12-17T15:39:12;54.33;;;28.30;;
23406;SDS011;11876;53.438;18.942;2022-12-17T15:42:15;54.63;;;26.05;;
23406;SDS011;11876;53.438;18.942;2022-12-17T15:45:46;50.65;;;24.70;;
23406;SDS011;11876;53.438;18.942;2022-12-17T15:48:50;50.22;;;25.38;;
23406;SDS011;11876;53.438;18.942;2022-12-17T15:51:52;45.70;;;24.27;;
23406;SDS011;11876;53.438;18.942;2022-12-17T15:54:55;47.10;;;25.77;;
23406;SDS011;11876;53.438;18.942;2022-12-17T15:57:57;55.42;;;26.92;;
23406;SDS011;11876;53.438;18.942;2022-12-17T16:01:00;60.45;;;29.23;;
23406;SDS011;11876;53.438;18.942;2022-12-17T16:04:02;63.97;;;31.50;;
23406;SDS011;11876;53.438;18.942;2022-12-17T16:07:12;60.92;;;30.27;;
23406;SDS011;11876;53.438;18.942;2022-12-17T16:10:14;62.60;;;31.02;;
23406;SDS011;11876;53.438;18.942;2022-12-17T16:13:17;56.60;;;30.80;;
23406;SDS011;11876;53.438;18.942;2022-12-17T16:16:19;59.55;;;29.40;;
23406;SDS011;11876;53.438;18.942;2022-12-17T16:19:22;41.77;;;22.40;;
23406;SDS011;11876;53.438;18.942;2022-12-17T16:22:25;60.25;;;30.17;;
23406;SDS011;11876;53.438;18.942;2022-12-17T16:25:28;50.13;;;25.52;;
23406;SDS011;11876;53.438;18.942;2022-12-17T16:28:30;64.88;;;36.85;;
23406;SDS011;11876;53.438;18.942;2022-12-17T16:31:33;72.22;;;37.75;;
23406;SDS011;11876;53.438;18.942;2022-12-17T16:34:35;70.32;;;37.13;;
23406;SDS011;11876;53.438;18.942;2022-12-17T16:37:40;70.65;;;35.30;;
23406;SDS011;11876;53.438;18.942;2022-12-17T16:40:43;76.10;;;40.10;;
23406;SDS011;11876;53.438;18.942;2022-12-17T16:43:46;78.50;;;38.75;;
23406;SDS011;11876;53.438;18.942;2022-12-17T16:46:49;78.10;;;36.50;;
23406;SDS011;11876;53.438;18.942;2022-12-17T16:52:54;69.40;;;35.38;;
23406;SDS011;11876;53.438;18.942;2022-12-17T16:55:57;69.20;;;35.75;;
23406;SDS011;11876;53.438;18.942;2022-12-17T16:59:01;72.38;;;37.08;;
23406;SDS011;11876;53.438;18.942;2022-12-17T17:02:07;72.45;;;36.28;;
23406;SDS011;11876;53.438;18.942;2022-12-17T17:05:14;79.35;;;38.72;;
23406;SDS011;11876;53.438;18.942;2022-12-17T17:08:16;84.05;;;39.10;;
23406;SDS011;11876;53.438;18.942;2022-12-17T17:11:20;89.03;;;42.15;;
23406;SDS011;11876;53.438;18.942;2022-12-17T17:14:24;86.18;;;40.40;;
23406;SDS011;11876;53.438;18.942;2022-12-17T17:17:27;94.53;;;43.65;;
23406;SDS011;11876;53.438;18.942;2022-12-17T17:20:49;92.43;;;43.78;;
23406;SDS011;11876;53.438;18.942;2022-12-17T17:23:53;101.70;;;47.13;;
23406;SDS011;11876;53.438;18.942;2022-12-17T17:26:57;97.55;;;45.25;;
23406;SDS011;11876;53.438;18.942;2022-12-17T17:30:00;81.68;;;42.70;;
23406;SDS011;11876;53.438;18.942;2022-12-17T17:33:04;102.82;;;48.67;;
23406;SDS011;11876;53.438;18.942;2022-12-17T17:36:11;94.35;;;43.33;;
23406;SDS011;11876;53.438;18.942;2022-12-17T17:39:14;85.35;;;41.80;;
23406;SDS011;11876;53.438;18.942;2022-12-17T17:42:16;89.35;;;43.33;;
23406;SDS011;11876;53.438;18.942;2022-12-17T17:45:19;97.63;;;47.20;;
23406;SDS011;11876;53.438;18.942;2022-12-17T17:48:21;87.93;;;43.50;;
23406;SDS011;11876;53.438;18.942;2022-12-17T17:51:25;107.00;;;47.50;;
23406;SDS011;11876;53.438;18.942;2022-12-17T17:54:49;101.95;;;47.20;;
23406;SDS011;11876;53.438;18.942;2022-12-17T17:57:51;91.78;;;43.65;;
23406;SDS011;11876;53.438;18.942;2022-12-17T18:00:53;92.70;;;46.83;;
23406;SDS011;11876;53.438;18.942;2022-12-17T18:03:57;88.60;;;44.40;;
23406;SDS011;11876;53.438;18.942;2022-12-17T18:07:03;95.22;;;43.25;;
23406;SDS011;11876;53.438;18.942;2022-12-17T18:10:25;91.03;;;45.45;;
23406;SDS011;11876;53.438;18.942;2022-12-17T18:13:30;110.75;;;52.28;;
23406;SDS011;11876;53.438;18.942;2022-12-17T18:16:53;96.60;;;45.20;;
23406;SDS011;11876;53.438;18.942;2022-12-17T18:19:55;117.55;;;56.15;;
23406;SDS011;11876;53.438;18.942;2022-12-17T18:22:57;138.32;;;56.20;;
23406;SDS011;11876;53.438;18.942;2022-12-17T18:26:03;117.90;;;57.22;;
23406;SDS011;11876;53.438;18.942;2022-12-17T18:29:10;115.78;;;54.10;;
23406;SDS011;11876;53.438;18.942;2022-12-17T18:32:15;104.72;;;51.50;;
23406;SDS011;11876;53.438;18.942;2022-12-17T18:35:18;112.15;;;51.08;;
23406;SDS011;11876;53.438;18.942;2022-12-17T18:38:20;118.90;;;55.80;;
23406;SDS011;11876;53.438;18.942;2022-12-17T18:41:22;94.85;;;43.40;;
23406;SDS011;11876;53.438;18.942;2022-12-17T18:44:44;116.57;;;50.42;;
23406;SDS011;11876;53.438;18.942;2022-12-17T18:47:46;105.10;;;46.13;;
23406;SDS011;11876;53.438;18.942;2022-12-17T18:50:49;111.03;;;50.25;;
23406;SDS011;11876;53.438;18.942;2022-12-17T18:53:51;113.18;;;50.95;;
23406;SDS011;11876;53.438;18.942;2022-12-17T18:56:57;109.07;;;48.92;;
23406;SDS011;11876;53.438;18.942;2022-12-17T19:00:02;107.40;;;50.60;;
23406;SDS011;11876;53.438;18.942;2022-12-17T19:03:05;111.60;;;50.60;;
23406;SDS011;11876;53.438;18.942;2022-12-17T19:06:10;103.63;;;52.08;;
23406;SDS011;11876;53.438;18.942;2022-12-17T19:09:20;113.15;;;53.70;;
23406;SDS011;11876;53.438;18.942;2022-12-17T19:12:29;108.43;;;54.55;;
23406;SDS011;11876;53.438;18.942;2022-12-17T19:15:33;103.32;;;50.75;;
23406;SDS011;11876;53.438;18.942;2022-12-17T19:18:36;102.57;;;48.97;;
23406;SDS011;11876;53.438;18.942;2022-12-17T19:24:42;89.43;;;45.63;;
23406;SDS011;11876;53.438;18.942;2022-12-17T19:27:44;94.75;;;46.28;;
23406;SDS011;11876;53.438;18.942;2022-12-17T19:30:47;115.47;;;48.80;;
23406;SDS011;11876;53.438;18.942;2022-12-17T19:33:52;117.85;;;50.30;;
23406;SDS011;11876;53.438;18.942;2022-12-17T19:36:59;107.97;;;51.38;;
23406;SDS011;11876;53.438;18.942;2022-12-17T19:40:01;94.30;;;42.63;;
23406;SDS011;11876;53.438;18.942;2022-12-17T19:43:04;63.80;;;31.45;;
23406;SDS011;11876;53.438;18.942;2022-12-17T19:46:08;88.50;;;43.13;;
23406;SDS011;11876;53.438;18.942;2022-12-17T19:49:15;83.70;;;42.55;;
23406;SDS011;11876;53.438;18.942;2022-12-17T19:52:17;79.90;;;35.90;;
23406;SDS011;11876;53.438;18.942;2022-12-17T19:55:21;94.30;;;45.90;;
23406;SDS011;11876;53.438;18.942;2022-12-17T19:58:23;92.15;;;46.50;;
23406;SDS011;11876;53.438;18.942;2022-12-17T20:01:30;102.35;;;45.15;;
23406;SDS011;11876;53.438;18.942;2022-12-17T20:04:33;102.50;;;44.60;;
23406;SDS011;11876;53.438;18.942;2022-12-17T20:07:36;110.07;;;51.90;;
23406;SDS011;11876;53.438;18.942;2022-12-17T20:10:38;107.60;;;48.28;;